sensor_id;sensor_type;location;lat;lon;timestamp;temperature;humidity
3912;DHT22;1971;51.778;10.330;2023-02-04T00:02:31;2.40;99.90
3912;DHT22;1971;51.778;10.330;2023-02-04T00:05:02;2.60;99.90
3912;DHT22;1971;51.778;10.330;2023-02-04T00:07:34;2.40;99.90
3912;DHT22;1971;51.778;10.330;2023-02-04T00:10:08;2.20;99.90
3912;DHT22;1971;51.778;10.330;2023-02-04T00:12:38;2.70;99.90
3912;DHT22;1971;51.778;10.330;2023-02-04T00:15:17;2.50;99.90
3912;DHT22;1971;51.778;10.330;2023-02-04T00:18:40;2.50;99.90
3912;DHT22;1971;51.778;10.330;2023-02-04T00:21:26;2.80;99.90
3912;DHT22;1971;51.778;10.330;2023-02-04T00:24:02;2.60;99.90
3912;DHT22;1971;51.778;10.330;2023-02-04T00:26:53;2.30;99.90
3912;DHT22;1971;51.778;10.330;2023-02-04T00:29:36;2.60;99.90
3912;DHT22;1971;51.778;10.330;2023-02-04T00:32:09;2.70;99.90
3912;DHT22;1971;51.778;10.330;2023-02-04T00:34:39;2.80;99.90
3912;DHT22;1971;51.778;10.330;2023-02-04T00:37:09;2.60;99.90
3912;DHT22;1971;51.778;10.330;2023-02-04T00:39:40;2.70;99.90
3912;DHT22;1971;51.778;10.330;2023-02-04T00:42:10;2.30;99.90
3912;DHT22;1971;51.778;10.330;2023-02-04T00:44:40;2.70;99.90
3912;DHT22;1971;51.778;10.330;2023-02-04T00:47:12;2.40;99.90
3912;DHT22;1971;51.778;10.330;2023-02-04T00:49:42;2.30;99.90
3912;DHT22;1971;51.778;10.330;2023-02-04T00:52:12;2.30;99.90
3912;DHT22;1971;51.778;10.330;2023-02-04T00:54:42;2.60;99.90
3912;DHT22;1971;51.778;10.330;2023-02-04T00:57:13;2.40;99.90
3912;DHT22;1971;51.778;10.330;2023-02-04T00:59:44;2.30;99.90
3912;DHT22;1971;51.778;10.330;2023-02-04T01:02:16;2.50;99.90
3912;DHT22;1971;51.778;10.330;2023-02-04T01:04:46;2.50;99.90
3912;DHT22;1971;51.778;10.330;2023-02-04T01:07:17;2.70;99.90
3912;DHT22;1971;51.778;10.330;2023-02-04T01:09:47;2.40;99.90
3912;DHT22;1971;51.778;10.330;2023-02-04T01:12:17;2.30;99.90
3912;DHT22;1971;51.778;10.330;2023-02-04T01:14:48;2.30;99.90
3912;DHT22;1971;51.778;10.330;2023-02-04T01:17:21;2.50;99.90
3912;DHT22;1971;51.778;10.330;2023-02-04T01:19:52;2.20;99.90
3912;DHT22;1971;51.778;10.330;2023-02-04T01:22:23;2.70;99.90
3912;DHT22;1971;51.778;10.330;2023-02-04T01:24:54;2.50;99.90
3912;DHT22;1971;51.778;10.330;2023-02-04T01:27:40;2.40;99.90
3912;DHT22;1971;51.778;10.330;2023-02-04T01:30:13;2.50;99.90
3912;DHT22;1971;51.778;10.330;2023-02-04T01:32:46;2.20;99.90
3912;DHT22;1971;51.778;10.330;2023-02-04T01:35:17;2.30;99.90
3912;DHT22;1971;51.778;10.330;2023-02-04T01:37:47;2.30;99.90
3912;DHT22;1971;51.778;10.330;2023-02-04T01:40:18;2.40;99.90
3912;DHT22;1971;51.778;10.330;2023-02-04T01:42:51;2.30;99.90
3912;DHT22;1971;51.778;10.330;2023-02-04T01:45:23;2.40;99.90
3912;DHT22;1971;51.778;10.330;2023-02-04T01:47:58;2.10;99.90
3912;DHT22;1971;51.778;10.330;2023-02-04T01:50:29;2.40;99.90
3912;DHT22;1971;51.778;10.330;2023-02-04T01:53:00;2.50;99.90
3912;DHT22;1971;51.778;10.330;2023-02-04T01:55:32;2.30;99.90
3912;DHT22;1971;51.778;10.330;2023-02-04T01:58:03;2.20;99.90
3912;DHT22;1971;51.778;10.330;2023-02-04T02:00:34;2.10;99.90
3912;DHT22;1971;51.778;10.330;2023-02-04T02:03:07;2.10;99.90
3912;DHT22;1971;51.778;10.330;2023-02-04T02:05:41;2.20;99.90
3912;DHT22;1971;51.778;10.330;2023-02-04T02:08:14;2.20;99.90
3912;DHT22;1971;51.778;10.330;2023-02-04T02:10:47;2.30;99.90
3912;DHT22;1971;51.778;10.330;2023-02-04T02:13:19;1.90;99.90
3912;DHT22;1971;51.778;10.330;2023-02-04T02:15:50;1.90;99.90
3912;DHT22;1971;51.778;10.330;2023-02-04T02:18:23;1.70;99.90
3912;DHT22;1971;51.778;10.330;2023-02-04T02:20:54;1.60;99.90
3912;DHT22;1971;51.778;10.330;2023-02-04T02:26:20;1.20;99.90
3912;DHT22;1971;51.778;10.330;2023-02-04T02:28:51;1.20;99.90
3912;DHT22;1971;51.778;10.330;2023-02-04T02:31:25;1.50;99.90
3912;DHT22;1971;51.778;10.330;2023-02-04T02:33:57;1.50;99.90
3912;DHT22;1971;51.778;10.330;2023-02-04T02:36:28;1.40;99.90
3912;DHT22;1971;51.778;10.330;2023-02-04T02:38:58;1.30;99.90
3912;DHT22;1971;51.778;10.330;2023-02-04T02:41:32;1.00;99.90
3912;DHT22;1971;51.778;10.330;2023-02-04T02:44:02;1.00;99.90
3912;DHT22;1971;51.778;10.330;2023-02-04T02:46:36;0.70;99.90
3912;DHT22;1971;51.778;10.330;2023-02-04T02:49:12;1.00;99.90
3912;DHT22;1971;51.778;10.330;2023-02-04T02:51:44;1.00;99.90
3912;DHT22;1971;51.778;10.330;2023-02-04T02:54:21;0.80;99.90
3912;DHT22;1971;51.778;10.330;2023-02-04T02:56:58;0.90;99.90
3912;DHT22;1971;51.778;10.330;2023-02-04T02:59:29;0.90;99.90
3912;DHT22;1971;51.778;10.330;2023-02-04T03:02:00;0.80;99.90
3912;DHT22;1971;51.778;10.330;2023-02-04T03:04:37;0.90;99.90
3912;DHT22;1971;51.778;10.330;2023-02-04T03:07:15;0.80;99.90
3912;DHT22;1971;51.778;10.330;2023-02-04T03:09:46;0.90;99.90
3912;DHT22;1971;51.778;10.330;2023-02-04T03:12:20;0.90;99.90
3912;DHT22;1971;51.778;10.330;2023-02-04T03:14:51;1.00;99.90
3912;DHT22;1971;51.778;10.330;2023-02-04T03:17:21;1.00;99.90
3912;DHT22;1971;51.778;10.330;2023-02-04T03:19:51;1.00;99.90
3912;DHT22;1971;51.778;10.330;2023-02-04T03:22:22;0.70;99.90
3912;DHT22;1971;51.778;10.330;2023-02-04T03:24:52;0.70;99.90
3912;DHT22;1971;51.778;10.330;2023-02-04T03:27:27;0.60;99.90
3912;DHT22;1971;51.778;10.330;2023-02-04T03:29:57;0.90;99.90
3912;DHT22;1971;51.778;10.330;2023-02-04T03:32:27;1.00;99.90
3912;DHT22;1971;51.778;10.330;2023-02-04T03:34:57;0.80;99.90
3912;DHT22;1971;51.778;10.330;2023-02-04T03:37:27;1.00;99.90
3912;DHT22;1971;51.778;10.330;2023-02-04T03:39:57;0.90;99.90
3912;DHT22;1971;51.778;10.330;2023-02-04T03:42:30;0.80;99.90
3912;DHT22;1971;51.778;10.330;2023-02-04T03:45:00;0.80;99.90
3912;DHT22;1971;51.778;10.330;2023-02-04T03:47:30;1.00;99.90
3912;DHT22;1971;51.778;10.330;2023-02-04T03:50:00;1.00;99.90
3912;DHT22;1971;51.778;10.330;2023-02-04T03:52:30;0.90;99.90
3912;DHT22;1971;51.778;10.330;2023-02-04T03:55:01;0.80;99.90
3912;DHT22;1971;51.778;10.330;2023-02-04T03:57:33;0.60;99.90
3912;DHT22;1971;51.778;10.330;2023-02-04T04:00:04;0.80;99.90
3912;DHT22;1971;51.778;10.330;2023-02-04T04:02:38;0.70;99.90
3912;DHT22;1971;51.778;10.330;2023-02-04T04:05:09;0.70;99.90
3912;DHT22;1971;51.778;10.330;2023-02-04T04:07:39;1.00;99.90
3912;DHT22;1971;51.778;10.330;2023-02-04T04:10:11;0.60;99.90
3912;DHT22;1971;51.778;10.330;2023-02-04T04:12:45;0.90;99.90
3912;DHT22;1971;51.778;10.330;2023-02-04T04:15:15;1.10;99.90
3912;DHT22;1971;51.778;10.330;2023-02-04T04:17:45;0.70;99.90
3912;DHT22;1971;51.778;10.330;2023-02-04T04:20:16;0.80;99.90
3912;DHT22;1971;51.778;10.330;2023-02-04T04:22:46;0.70;99.90
3912;DHT22;1971;51.778;10.330;2023-02-04T04:25:16;1.10;99.90
3912;DHT22;1971;51.778;10.330;2023-02-04T04:27:50;0.90;99.90
3912;DHT22;1971;51.778;10.330;2023-02-04T04:30:20;0.90;99.90
3912;DHT22;1971;51.778;10.330;2023-02-04T04:32:50;0.80;99.90
3912;DHT22;1971;51.778;10.330;2023-02-04T04:35:20;0.80;99.90
3912;DHT22;1971;51.778;10.330;2023-02-04T04:37:50;0.70;99.90
3912;DHT22;1971;51.778;10.330;2023-02-04T04:40:20;0.90;99.90
3912;DHT22;1971;51.778;10.330;2023-02-04T04:42:53;0.90;99.90
3912;DHT22;1971;51.778;10.330;2023-02-04T04:45:23;0.90;99.90
3912;DHT22;1971;51.778;10.330;2023-02-04T04:47:53;0.50;99.90
3912;DHT22;1971;51.778;10.330;2023-02-04T04:50:23;0.90;99.90
3912;DHT22;1971;51.778;10.330;2023-02-04T04:52:53;0.90;99.90
3912;DHT22;1971;51.778;10.330;2023-02-04T04:55:23;0.90;99.90
3912;DHT22;1971;51.778;10.330;2023-02-04T04:57:56;0.90;99.90
3912;DHT22;1971;51.778;10.330;2023-02-04T05:00:26;0.70;99.90
3912;DHT22;1971;51.778;10.330;2023-02-04T05:02:57;0.50;99.90
3912;DHT22;1971;51.778;10.330;2023-02-04T05:05:27;0.90;99.90
3912;DHT22;1971;51.778;10.330;2023-02-04T05:07:57;0.80;99.90
3912;DHT22;1971;51.778;10.330;2023-02-04T05:10:27;0.60;99.90
3912;DHT22;1971;51.778;10.330;2023-02-04T05:13:00;0.70;99.90
3912;DHT22;1971;51.778;10.330;2023-02-04T05:15:31;0.60;99.90
3912;DHT22;1971;51.778;10.330;2023-02-04T05:18:01;0.60;99.90
3912;DHT22;1971;51.778;10.330;2023-02-04T05:20:31;0.80;99.90
3912;DHT22;1971;51.778;10.330;2023-02-04T05:23:01;0.60;99.90
3912;DHT22;1971;51.778;10.330;2023-02-04T05:25:31;0.80;99.90
3912;DHT22;1971;51.778;10.330;2023-02-04T05:28:04;0.70;99.90
3912;DHT22;1971;51.778;10.330;2023-02-04T05:30:35;0.80;99.90
3912;DHT22;1971;51.778;10.330;2023-02-04T05:33:05;0.70;99.90
3912;DHT22;1971;51.778;10.330;2023-02-04T05:35:38;0.60;99.90
3912;DHT22;1971;51.778;10.330;2023-02-04T05:38:09;0.70;99.90
3912;DHT22;1971;51.778;10.330;2023-02-04T05:40:39;0.90;99.90
3912;DHT22;1971;51.778;10.330;2023-02-04T05:43:11;0.50;99.90
3912;DHT22;1971;51.778;10.330;2023-02-04T05:45:42;0.90;99.90
3912;DHT22;1971;51.778;10.330;2023-02-04T05:48:12;0.40;99.90
3912;DHT22;1971;51.778;10.330;2023-02-04T05:50:42;0.70;99.90
3912;DHT22;1971;51.778;10.330;2023-02-04T05:53:12;0.40;99.90
3912;DHT22;1971;51.778;10.330;2023-02-04T05:55:42;0.50;99.90
3912;DHT22;1971;51.778;10.330;2023-02-04T05:58:14;0.50;99.90
3912;DHT22;1971;51.778;10.330;2023-02-04T06:00:45;0.40;99.90
3912;DHT22;1971;51.778;10.330;2023-02-04T06:03:15;0.70;99.90
3912;DHT22;1971;51.778;10.330;2023-02-04T06:05:45;0.30;99.90
3912;DHT22;1971;51.778;10.330;2023-02-04T06:08:15;0.30;99.90
3912;DHT22;1971;51.778;10.330;2023-02-04T06:10:45;0.50;99.90
3912;DHT22;1971;51.778;10.330;2023-02-04T06:13:18;0.50;99.90
3912;DHT22;1971;51.778;10.330;2023-02-04T06:15:48;0.80;99.90
3912;DHT22;1971;51.778;10.330;2023-02-04T06:18:17;0.50;99.90
3912;DHT22;1971;51.778;10.330;2023-02-04T06:20:47;0.30;99.90
3912;DHT22;1971;51.778;10.330;2023-02-04T06:23:17;0.30;99.90
3912;DHT22;1971;51.778;10.330;2023-02-04T06:25:47;0.30;99.90
3912;DHT22;1971;51.778;10.330;2023-02-04T06:28:19;0.40;99.90
3912;DHT22;1971;51.778;10.330;2023-02-04T06:30:50;0.70;99.90
3912;DHT22;1971;51.778;10.330;2023-02-04T06:33:20;0.30;99.90
3912;DHT22;1971;51.778;10.330;2023-02-04T06:35:50;0.50;99.90
3912;DHT22;1971;51.778;10.330;2023-02-04T06:38:20;0.40;99.90
3912;DHT22;1971;51.778;10.330;2023-02-04T06:40:50;0.60;99.90
3912;DHT22;1971;51.778;10.330;2023-02-04T06:43:23;0.60;99.90
3912;DHT22;1971;51.778;10.330;2023-02-04T06:45:54;0.60;99.90
3912;DHT22;1971;51.778;10.330;2023-02-04T06:48:24;0.70;99.90
3912;DHT22;1971;51.778;10.330;2023-02-04T06:50:56;0.70;99.90
3912;DHT22;1971;51.778;10.330;2023-02-04T06:53:27;0.60;99.90
3912;DHT22;1971;51.778;10.330;2023-02-04T06:55:57;0.60;99.90
3912;DHT22;1971;51.778;10.330;2023-02-04T06:58:30;0.60;99.90
3912;DHT22;1971;51.778;10.330;2023-02-04T07:01:00;0.60;99.90
3912;DHT22;1971;51.778;10.330;2023-02-04T07:03:30;0.60;99.90
3912;DHT22;1971;51.778;10.330;2023-02-04T07:06:00;0.60;99.90
3912;DHT22;1971;51.778;10.330;2023-02-04T07:08:29;0.70;99.90
3912;DHT22;1971;51.778;10.330;2023-02-04T07:10:59;0.50;99.90
3912;DHT22;1971;51.778;10.330;2023-02-04T07:13:32;0.70;99.90
3912;DHT22;1971;51.778;10.330;2023-02-04T07:16:02;0.50;99.90
3912;DHT22;1971;51.778;10.330;2023-02-04T07:18:33;0.40;99.90
3912;DHT22;1971;51.778;10.330;2023-02-04T07:21:04;0.50;99.90
3912;DHT22;1971;51.778;10.330;2023-02-04T07:23:34;0.40;99.90
3912;DHT22;1971;51.778;10.330;2023-02-04T07:26:04;0.60;99.90
3912;DHT22;1971;51.778;10.330;2023-02-04T07:28:37;0.60;99.90
3912;DHT22;1971;51.778;10.330;2023-02-04T07:31:07;0.50;99.90
3912;DHT22;1971;51.778;10.330;2023-02-04T07:33:37;0.30;99.90
3912;DHT22;1971;51.778;10.330;2023-02-04T07:36:07;0.40;99.90
3912;DHT22;1971;51.778;10.330;2023-02-04T07:38:40;0.40;99.90
3912;DHT22;1971;51.778;10.330;2023-02-04T07:41:10;0.70;99.90
3912;DHT22;1971;51.778;10.330;2023-02-04T07:43:43;0.80;99.90
3912;DHT22;1971;51.778;10.330;2023-02-04T07:46:13;1.00;99.90
3912;DHT22;1971;51.778;10.330;2023-02-04T07:48:43;0.90;99.90
3912;DHT22;1971;51.778;10.330;2023-02-04T07:51:14;1.10;99.90
3912;DHT22;1971;51.778;10.330;2023-02-04T07:53:44;1.00;99.90
3912;DHT22;1971;51.778;10.330;2023-02-04T07:56:14;1.00;99.90
3912;DHT22;1971;51.778;10.330;2023-02-04T07:58:47;1.00;99.90
3912;DHT22;1971;51.778;10.330;2023-02-04T08:01:18;0.90;99.90
3912;DHT22;1971;51.778;10.330;2023-02-04T08:03:48;0.80;99.90
3912;DHT22;1971;51.778;10.330;2023-02-04T08:06:19;0.80;99.90
3912;DHT22;1971;51.778;10.330;2023-02-04T08:08:49;1.10;99.90
3912;DHT22;1971;51.778;10.330;2023-02-04T08:11:19;1.10;99.90
3912;DHT22;1971;51.778;10.330;2023-02-04T08:13:52;1.30;99.90
3912;DHT22;1971;51.778;10.330;2023-02-04T08:16:22;1.10;97.10
3912;DHT22;1971;51.778;10.330;2023-02-04T08:18:52;0.70;81.30
3912;DHT22;1971;51.778;10.330;2023-02-04T08:21:22;1.20;86.60
3912;DHT22;1971;51.778;10.330;2023-02-04T08:23:52;0.70;73.10
3912;DHT22;1971;51.778;10.330;2023-02-04T08:26:22;0.90;68.50
3912;DHT22;1971;51.778;10.330;2023-02-04T08:28:54;0.80;38.10
3912;DHT22;1971;51.778;10.330;2023-02-04T08:31:25;0.70;47.60
3912;DHT22;1971;51.778;10.330;2023-02-04T08:33:55;0.80;48.80
3912;DHT22;1971;51.778;10.330;2023-02-04T08:36:25;0.60;48.60
3912;DHT22;1971;51.778;10.330;2023-02-04T08:38:55;1.00;50.40
3912;DHT22;1971;51.778;10.330;2023-02-04T08:41:25;0.70;40.00
3912;DHT22;1971;51.778;10.330;2023-02-04T08:43:58;1.10;26.10
3912;DHT22;1971;51.778;10.330;2023-02-04T08:46:28;0.80;17.60
3912;DHT22;1971;51.778;10.330;2023-02-04T08:48:58;1.00;1.00
3912;DHT22;1971;51.778;10.330;2023-02-04T08:51:29;1.00;1.00
3912;DHT22;1971;51.778;10.330;2023-02-04T08:53:59;0.80;1.00
3912;DHT22;1971;51.778;10.330;2023-02-04T08:56:29;0.90;1.00
3912;DHT22;1971;51.778;10.330;2023-02-04T08:59:01;1.20;1.00
3912;DHT22;1971;51.778;10.330;2023-02-04T09:01:31;1.10;1.00
3912;DHT22;1971;51.778;10.330;2023-02-04T09:04:02;1.40;1.00
3912;DHT22;1971;51.778;10.330;2023-02-04T09:06:32;1.20;1.00
3912;DHT22;1971;51.778;10.330;2023-02-04T09:09:03;1.10;1.00
3912;DHT22;1971;51.778;10.330;2023-02-04T09:11:33;1.10;1.00
3912;DHT22;1971;51.778;10.330;2023-02-04T09:14:06;1.50;1.00
3912;DHT22;1971;51.778;10.330;2023-02-04T09:16:36;1.20;1.00
3912;DHT22;1971;51.778;10.330;2023-02-04T09:19:06;1.40;1.00
3912;DHT22;1971;51.778;10.330;2023-02-04T09:21:38;1.30;1.00
3912;DHT22;1971;51.778;10.330;2023-02-04T09:24:09;1.50;1.00
3912;DHT22;1971;51.778;10.330;2023-02-04T09:26:39;1.20;1.00
3912;DHT22;1971;51.778;10.330;2023-02-04T09:29:11;1.80;1.00
3912;DHT22;1971;51.778;10.330;2023-02-04T09:31:41;1.80;1.00
3912;DHT22;1971;51.778;10.330;2023-02-04T09:34:11;2.20;1.00
3912;DHT22;1971;51.778;10.330;2023-02-04T09:36:41;1.90;1.00
3912;DHT22;1971;51.778;10.330;2023-02-04T09:39:11;2.00;1.00
3912;DHT22;1971;51.778;10.330;2023-02-04T09:41:41;1.90;1.00
3912;DHT22;1971;51.778;10.330;2023-02-04T09:44:17;2.00;1.00
3912;DHT22;1971;51.778;10.330;2023-02-04T09:46:49;2.30;1.00
3912;DHT22;1971;51.778;10.330;2023-02-04T09:49:20;2.20;1.00
3912;DHT22;1971;51.778;10.330;2023-02-04T09:51:51;2.60;1.00
3912;DHT22;1971;51.778;10.330;2023-02-04T09:54:22;2.10;1.00
3912;DHT22;1971;51.778;10.330;2023-02-04T09:56:52;2.00;1.00
3912;DHT22;1971;51.778;10.330;2023-02-04T09:59:28;2.30;1.00
3912;DHT22;1971;51.778;10.330;2023-02-04T10:02:14;2.50;1.00
3912;DHT22;1971;51.778;10.330;2023-02-04T10:04:48;2.60;1.00
3912;DHT22;1971;51.778;10.330;2023-02-04T10:07:21;2.30;1.00
3912;DHT22;1971;51.778;10.330;2023-02-04T10:09:53;2.10;99.90
3912;DHT22;1971;51.778;10.330;2023-02-04T10:12:25;1.90;99.90
3912;DHT22;1971;51.778;10.330;2023-02-04T10:14:59;2.10;1.00
3912;DHT22;1971;51.778;10.330;2023-02-04T10:17:30;1.70;1.00
3912;DHT22;1971;51.778;10.330;2023-02-04T10:20:00;1.90;1.00
3912;DHT22;1971;51.778;10.330;2023-02-04T10:22:30;1.90;1.00
3912;DHT22;1971;51.778;10.330;2023-02-04T10:25:01;2.20;1.00
3912;DHT22;1971;51.778;10.330;2023-02-04T10:27:31;2.00;1.00
3912;DHT22;1971;51.778;10.330;2023-02-04T10:30:05;2.30;1.00
3912;DHT22;1971;51.778;10.330;2023-02-04T10:32:35;2.50;1.00
3912;DHT22;1971;51.778;10.330;2023-02-04T10:35:12;2.50;99.90
3912;DHT22;1971;51.778;10.330;2023-02-04T10:37:42;2.20;99.90
3912;DHT22;1971;51.778;10.330;2023-02-04T10:40:27;2.20;99.90
3912;DHT22;1971;51.778;10.330;2023-02-04T10:43:06;2.20;99.90
3912;DHT22;1971;51.778;10.330;2023-02-04T10:45:44;2.20;99.90
3912;DHT22;1971;51.778;10.330;2023-02-04T10:48:19;2.50;99.90
3912;DHT22;1971;51.778;10.330;2023-02-04T10:50:51;2.60;99.90
3912;DHT22;1971;51.778;10.330;2023-02-04T10:53:23;2.60;99.90
3912;DHT22;1971;51.778;10.330;2023-02-04T10:56:14;3.10;99.90
3912;DHT22;1971;51.778;10.330;2023-02-04T10:58:46;3.40;99.90
3912;DHT22;1971;51.778;10.330;2023-02-04T11:01:19;3.00;99.90
3912;DHT22;1971;51.778;10.330;2023-02-04T11:03:49;2.90;99.90
3912;DHT22;1971;51.778;10.330;2023-02-04T11:06:22;3.20;99.90
3912;DHT22;1971;51.778;10.330;2023-02-04T11:08:52;3.10;99.90
3912;DHT22;1971;51.778;10.330;2023-02-04T11:11:24;3.10;99.90
3912;DHT22;1971;51.778;10.330;2023-02-04T11:14:00;3.50;99.90
3912;DHT22;1971;51.778;10.330;2023-02-04T11:16:34;3.40;99.90
3912;DHT22;1971;51.778;10.330;2023-02-04T11:19:28;3.10;99.90
3912;DHT22;1971;51.778;10.330;2023-02-04T11:22:19;2.50;99.90
3912;DHT22;1971;51.778;10.330;2023-02-04T11:24:50;2.50;99.90
3912;DHT22;1971;51.778;10.330;2023-02-04T11:27:23;2.40;99.90
3912;DHT22;1971;51.778;10.330;2023-02-04T11:30:05;2.30;99.90
3912;DHT22;1971;51.778;10.330;2023-02-04T11:32:38;2.20;99.90
3912;DHT22;1971;51.778;10.330;2023-02-04T11:35:25;2.30;99.90
3912;DHT22;1971;51.778;10.330;2023-02-04T11:37:57;2.10;99.90
3912;DHT22;1971;51.778;10.330;2023-02-04T11:40:30;2.00;99.90
3912;DHT22;1971;51.778;10.330;2023-02-04T11:43:07;2.30;99.90
3912;DHT22;1971;51.778;10.330;2023-02-04T11:45:39;2.40;99.90
3912;DHT22;1971;51.778;10.330;2023-02-04T11:48:16;2.80;99.90
3912;DHT22;1971;51.778;10.330;2023-02-04T11:50:54;2.70;99.90
3912;DHT22;1971;51.778;10.330;2023-02-04T11:53:28;2.30;99.90
3912;DHT22;1971;51.778;10.330;2023-02-04T11:55:59;2.30;99.90
3912;DHT22;1971;51.778;10.330;2023-02-04T11:58:30;2.60;99.90
3912;DHT22;1971;51.778;10.330;2023-02-04T12:01:01;2.50;99.90
3912;DHT22;1971;51.778;10.330;2023-02-04T12:03:46;2.60;99.90
3912;DHT22;1971;51.778;10.330;2023-02-04T12:06:21;2.70;99.90
3912;DHT22;1971;51.778;10.330;2023-02-04T12:08:51;2.70;99.90
3912;DHT22;1971;51.778;10.330;2023-02-04T12:11:27;2.50;99.90
3912;DHT22;1971;51.778;10.330;2023-02-04T12:14:05;2.40;99.90
3912;DHT22;1971;51.778;10.330;2023-02-04T12:16:39;2.30;99.90
3912;DHT22;1971;51.778;10.330;2023-02-04T12:19:13;2.30;99.90
3912;DHT22;1971;51.778;10.330;2023-02-04T12:21:44;2.40;99.90
3912;DHT22;1971;51.778;10.330;2023-02-04T12:24:15;2.10;99.90
3912;DHT22;1971;51.778;10.330;2023-02-04T12:26:45;2.00;99.90
3912;DHT22;1971;51.778;10.330;2023-02-04T12:29:16;2.10;99.90
3912;DHT22;1971;51.778;10.330;2023-02-04T12:31:46;2.00;99.90
3912;DHT22;1971;51.778;10.330;2023-02-04T12:34:19;2.10;99.90
3912;DHT22;1971;51.778;10.330;2023-02-04T12:36:52;2.00;99.90
3912;DHT22;1971;51.778;10.330;2023-02-04T12:39:24;2.00;99.90
3912;DHT22;1971;51.778;10.330;2023-02-04T12:41:55;2.30;99.90
3912;DHT22;1971;51.778;10.330;2023-02-04T12:44:25;2.20;99.90
3912;DHT22;1971;51.778;10.330;2023-02-04T12:46:56;2.50;99.90
3912;DHT22;1971;51.778;10.330;2023-02-04T12:49:29;2.30;99.90
3912;DHT22;1971;51.778;10.330;2023-02-04T12:51:59;2.60;99.90
3912;DHT22;1971;51.778;10.330;2023-02-04T12:54:31;3.20;99.90
3912;DHT22;1971;51.778;10.330;2023-02-04T12:57:02;3.10;99.90
3912;DHT22;1971;51.778;10.330;2023-02-04T12:59:32;3.00;99.90
3912;DHT22;1971;51.778;10.330;2023-02-04T13:02:03;3.20;99.90
3912;DHT22;1971;51.778;10.330;2023-02-04T13:04:36;3.20;99.90
3912;DHT22;1971;51.778;10.330;2023-02-04T13:07:08;3.30;99.90
3912;DHT22;1971;51.778;10.330;2023-02-04T13:09:38;3.30;99.90
3912;DHT22;1971;51.778;10.330;2023-02-04T13:12:09;3.20;99.90
3912;DHT22;1971;51.778;10.330;2023-02-04T13:14:40;3.20;99.90
3912;DHT22;1971;51.778;10.330;2023-02-04T13:17:10;3.50;99.90
3912;DHT22;1971;51.778;10.330;2023-02-04T13:19:44;3.00;99.90
3912;DHT22;1971;51.778;10.330;2023-02-04T13:22:14;2.90;99.90
3912;DHT22;1971;51.778;10.330;2023-02-04T13:24:45;2.80;99.90
3912;DHT22;1971;51.778;10.330;2023-02-04T13:27:15;2.50;99.90
3912;DHT22;1971;51.778;10.330;2023-02-04T13:29:45;2.60;99.90
3912;DHT22;1971;51.778;10.330;2023-02-04T13:32:16;2.80;99.90
3912;DHT22;1971;51.778;10.330;2023-02-04T13:34:49;2.50;99.90
3912;DHT22;1971;51.778;10.330;2023-02-04T13:37:19;2.90;99.90
3912;DHT22;1971;51.778;10.330;2023-02-04T13:39:49;2.70;99.90
3912;DHT22;1971;51.778;10.330;2023-02-04T13:42:20;2.60;99.90
3912;DHT22;1971;51.778;10.330;2023-02-04T13:44:50;2.40;99.90
3912;DHT22;1971;51.778;10.330;2023-02-04T13:47:21;2.40;99.90
3912;DHT22;1971;51.778;10.330;2023-02-04T13:49:54;2.40;99.90
3912;DHT22;1971;51.778;10.330;2023-02-04T13:52:24;2.40;99.90
3912;DHT22;1971;51.778;10.330;2023-02-04T13:54:55;2.70;99.90
3912;DHT22;1971;51.778;10.330;2023-02-04T13:57:25;2.90;99.90
3912;DHT22;1971;51.778;10.330;2023-02-04T13:59:57;3.70;99.90
3912;DHT22;1971;51.778;10.330;2023-02-04T14:02:38;4.00;99.90
3912;DHT22;1971;51.778;10.330;2023-02-04T14:05:11;4.10;99.90
3912;DHT22;1971;51.778;10.330;2023-02-04T14:07:42;3.60;99.90
3912;DHT22;1971;51.778;10.330;2023-02-04T14:10:13;3.30;99.90
3912;DHT22;1971;51.778;10.330;2023-02-04T14:12:44;3.20;99.90
3912;DHT22;1971;51.778;10.330;2023-02-04T14:15:15;3.10;99.90
3912;DHT22;1971;51.778;10.330;2023-02-04T14:17:46;3.10;99.90
3912;DHT22;1971;51.778;10.330;2023-02-04T14:20:19;3.10;99.90
3912;DHT22;1971;51.778;10.330;2023-02-04T14:22:50;3.00;99.90
3912;DHT22;1971;51.778;10.330;2023-02-04T14:25:20;2.90;99.90
3912;DHT22;1971;51.778;10.330;2023-02-04T14:27:53;3.10;99.90
3912;DHT22;1971;51.778;10.330;2023-02-04T14:30:28;2.70;99.90
3912;DHT22;1971;51.778;10.330;2023-02-04T14:33:00;2.70;99.90
3912;DHT22;1971;51.778;10.330;2023-02-04T14:35:32;2.40;99.90
3912;DHT22;1971;51.778;10.330;2023-02-04T14:38:04;2.40;99.90
3912;DHT22;1971;51.778;10.330;2023-02-04T14:40:36;2.40;99.90
3912;DHT22;1971;51.778;10.330;2023-02-04T14:43:07;2.40;99.90
3912;DHT22;1971;51.778;10.330;2023-02-04T14:45:38;2.60;99.90
3912;DHT22;1971;51.778;10.330;2023-02-04T14:48:08;2.20;99.90
3912;DHT22;1971;51.778;10.330;2023-02-04T14:50:42;2.20;99.90
3912;DHT22;1971;51.778;10.330;2023-02-04T14:53:12;2.10;99.90
3912;DHT22;1971;51.778;10.330;2023-02-04T14:55:43;2.10;99.90
3912;DHT22;1971;51.778;10.330;2023-02-04T14:58:13;2.40;99.90
3912;DHT22;1971;51.778;10.330;2023-02-04T15:00:43;1.90;99.90
3912;DHT22;1971;51.778;10.330;2023-02-04T15:03:14;1.50;99.90
3912;DHT22;1971;51.778;10.330;2023-02-04T15:05:47;1.30;99.90
3912;DHT22;1971;51.778;10.330;2023-02-04T15:08:17;1.40;99.90
3912;DHT22;1971;51.778;10.330;2023-02-04T15:10:47;1.30;1.00
3912;DHT22;1971;51.778;10.330;2023-02-04T15:13:18;1.50;1.00
3912;DHT22;1971;51.778;10.330;2023-02-04T15:15:48;1.70;1.00
3912;DHT22;1971;51.778;10.330;2023-02-04T15:18:18;1.40;1.00
3912;DHT22;1971;51.778;10.330;2023-02-04T15:20:52;1.30;1.00
3912;DHT22;1971;51.778;10.330;2023-02-04T15:23:22;1.00;1.00
3912;DHT22;1971;51.778;10.330;2023-02-04T15:25:52;1.40;1.00
3912;DHT22;1971;51.778;10.330;2023-02-04T15:28:24;1.10;1.00
3912;DHT22;1971;51.778;10.330;2023-02-04T15:30:56;1.40;1.00
3912;DHT22;1971;51.778;10.330;2023-02-04T15:33:26;1.30;1.00
3912;DHT22;1971;51.778;10.330;2023-02-04T15:35:59;1.20;1.00
3912;DHT22;1971;51.778;10.330;2023-02-04T15:38:30;1.20;1.00
3912;DHT22;1971;51.778;10.330;2023-02-04T15:41:00;1.20;1.00
3912;DHT22;1971;51.778;10.330;2023-02-04T15:43:30;0.90;1.00
3912;DHT22;1971;51.778;10.330;2023-02-04T15:46:00;1.10;1.00
3912;DHT22;1971;51.778;10.330;2023-02-04T15:48:31;0.90;1.00
3912;DHT22;1971;51.778;10.330;2023-02-04T15:51:04;0.90;1.00
3912;DHT22;1971;51.778;10.330;2023-02-04T15:53:35;1.10;1.00
3912;DHT22;1971;51.778;10.330;2023-02-04T15:56:06;0.90;1.00
3912;DHT22;1971;51.778;10.330;2023-02-04T15:58:37;0.80;1.00
3912;DHT22;1971;51.778;10.330;2023-02-04T16:01:07;0.70;1.00
3912;DHT22;1971;51.778;10.330;2023-02-04T16:03:38;1.00;1.00
3912;DHT22;1971;51.778;10.330;2023-02-04T16:06:13;0.60;1.00
3912;DHT22;1971;51.778;10.330;2023-02-04T16:08:43;0.60;1.00
3912;DHT22;1971;51.778;10.330;2023-02-04T16:11:15;0.50;1.00
3912;DHT22;1971;51.778;10.330;2023-02-04T16:13:46;0.70;1.00
3912;DHT22;1971;51.778;10.330;2023-02-04T16:16:17;0.50;1.00
3912;DHT22;1971;51.778;10.330;2023-02-04T16:18:47;0.70;1.00
3912;DHT22;1971;51.778;10.330;2023-02-04T16:21:21;0.90;4.50
3912;DHT22;1971;51.778;10.330;2023-02-04T16:23:51;0.50;1.00
3912;DHT22;1971;51.778;10.330;2023-02-04T16:26:22;0.70;1.00
3912;DHT22;1971;51.778;10.330;2023-02-04T16:28:52;0.50;1.00
3912;DHT22;1971;51.778;10.330;2023-02-04T16:31:23;0.40;1.00
3912;DHT22;1971;51.778;10.330;2023-02-04T16:33:55;0.10;1.00
3912;DHT22;1971;51.778;10.330;2023-02-04T16:36:28;0.00;8.00
3912;DHT22;1971;51.778;10.330;2023-02-04T16:38:59;0.20;29.80